createdAt,value
2022-12-04T00:00:13.916Z,27.17
2022-12-04T00:02:45.957Z,25.43
2022-12-04T00:05:18.025Z,26.90
2022-12-04T00:07:50.920Z,26.23
2022-12-04T00:10:22.941Z,25.80
2022-12-04T00:12:54.893Z,25.63
2022-12-04T00:15:27.441Z,25.53
2022-12-04T00:17:59.467Z,26.10
2022-12-04T00:20:31.335Z,25.70
2022-12-04T00:23:03.273Z,24.93
2022-12-04T00:25:40.781Z,25.80
2022-12-04T00:28:13.240Z,25.93
2022-12-04T00:30:46.163Z,26.10
2022-12-04T00:33:18.055Z,25.83
2022-12-04T00:36:01.922Z,25.53
2022-12-04T00:38:34.528Z,26.67
2022-12-04T00:41:09.952Z,25.83
2022-12-04T00:43:43.045Z,26.17
2022-12-04T00:46:16.354Z,24.47
2022-12-04T00:48:48.502Z,25.87
2022-12-04T00:51:25.191Z,26.23
2022-12-04T00:53:57.252Z,24.83
2022-12-04T00:56:30.052Z,26.07
2022-12-04T00:59:02.149Z,25.23
2022-12-04T01:01:34.372Z,26.60
2022-12-04T01:04:06.451Z,27.60
2022-12-04T01:06:38.414Z,25.43
2022-12-04T01:09:10.329Z,25.10
2022-12-04T01:11:42.307Z,26.60
2022-12-04T01:14:14.350Z,25.63
2022-12-04T01:16:47.533Z,24.97
2022-12-04T01:19:19.552Z,25.43
2022-12-04T01:21:51.534Z,25.33
2022-12-04T01:24:23.445Z,25.60
2022-12-04T01:26:55.388Z,26.30
2022-12-04T01:29:27.372Z,25.90
2022-12-04T01:31:59.532Z,27.00
2022-12-04T01:34:31.476Z,26.67
2022-12-04T01:37:03.498Z,26.33
2022-12-04T01:39:38.779Z,25.77
2022-12-04T01:42:15.735Z,25.57
2022-12-04T01:45:31.386Z,26.17
2022-12-04T01:48:17.905Z,24.80
2022-12-04T01:50:58.283Z,25.83
2022-12-04T01:53:31.610Z,25.27
2022-12-04T01:56:04.864Z,25.90
2022-12-04T01:58:44.958Z,26.60
2022-12-04T02:01:17.021Z,25.83
2022-12-04T02:03:50.258Z,25.17
2022-12-04T02:06:22.228Z,26.63
2022-12-04T02:08:54.467Z,26.20
2022-12-04T02:11:51.946Z,26.37
2022-12-04T02:14:57.106Z,26.07
2022-12-04T02:17:42.425Z,25.10
2022-12-04T02:21:06.223Z,25.93
2022-12-04T02:24:06.904Z,25.53
2022-12-04T02:27:15.004Z,24.73
2022-12-04T02:30:15.992Z,25.00
2022-12-04T02:32:57.267Z,26.40
2022-12-04T02:35:35.822Z,25.23
2022-12-04T02:38:23.896Z,26.40
2022-12-04T02:41:27.615Z,26.10
2022-12-04T02:44:10.339Z,25.53
2022-12-04T02:46:54.148Z,25.23
2022-12-04T02:49:38.015Z,27.10
2022-12-04T02:52:17.245Z,26.83
2022-12-04T02:55:04.042Z,26.93
2022-12-04T02:57:45.439Z,26.57
2022-12-04T03:00:19.033Z,27.57
2022-12-04T03:03:11.153Z,28.00
2022-12-04T03:06:05.959Z,27.87
2022-12-04T03:08:46.541Z,27.03
2022-12-04T03:11:18.950Z,29.13
2022-12-04T03:14:21.562Z,26.80
2022-12-04T03:17:03.810Z,28.50
2022-12-04T03:19:45.812Z,27.57
2022-12-04T03:22:22.174Z,26.57
2022-12-04T03:24:57.116Z,28.13
2022-12-04T03:27:39.559Z,27.20
2022-12-04T03:30:19.298Z,27.07
2022-12-04T03:33:13.664Z,26.80
2022-12-04T03:36:13.742Z,27.77
2022-12-04T03:39:03.550Z,27.90
2022-12-04T03:42:19.835Z,27.03
2022-12-04T03:45:44.160Z,28.23
2022-12-04T03:48:38.748Z,27.83
2022-12-04T03:51:35.285Z,27.37
2022-12-04T03:54:30.507Z,27.70
2022-12-04T03:57:24.477Z,27.77
2022-12-04T04:00:06.533Z,26.47
2022-12-04T04:02:46.854Z,27.67
2022-12-04T04:05:21.024Z,27.20
2022-12-04T04:08:25.041Z,28.87
2022-12-04T04:11:15.421Z,28.10
2022-12-04T04:14:23.001Z,27.53
2022-12-04T04:17:26.829Z,27.07
2022-12-04T04:20:44.320Z,29.03
2022-12-04T04:23:38.847Z,27.60
2022-12-04T04:26:14.223Z,28.93
2022-12-04T04:28:46.581Z,27.17
2022-12-04T04:31:37.117Z,28.53
2022-12-04T04:34:19.938Z,28.53
2022-12-04T04:37:21.033Z,28.47
2022-12-04T04:39:58.464Z,27.97
2022-12-04T04:42:51.683Z,27.70
2022-12-04T04:45:35.637Z,26.73
2022-12-04T04:48:23.870Z,27.93
2022-12-04T04:50:57.762Z,27.70
2022-12-04T04:53:46.940Z,28.93
2022-12-04T04:56:21.097Z,27.47
2022-12-04T04:58:53.066Z,28.83
2022-12-04T05:01:28.803Z,27.67
2022-12-04T05:04:03.124Z,28.70
2022-12-04T05:06:35.202Z,28.63
2022-12-04T05:09:07.262Z,27.33
2022-12-04T05:11:39.200Z,28.33
2022-12-04T05:14:11.144Z,28.60
2022-12-04T05:16:43.051Z,28.70
2022-12-04T05:19:33.420Z,28.70
2022-12-04T05:22:05.320Z,28.63
2022-12-04T05:24:37.208Z,28.17
2022-12-04T05:27:09.139Z,29.40
2022-12-04T05:29:41.184Z,28.87
2022-12-04T05:32:13.524Z,28.10
2022-12-04T05:34:49.198Z,28.87
2022-12-04T05:37:22.112Z,28.43
2022-12-04T05:39:54.557Z,27.33
2022-12-04T05:42:26.802Z,28.33
2022-12-04T05:44:58.855Z,28.27
2022-12-04T05:47:30.782Z,29.53
2022-12-04T05:50:02.875Z,27.93
2022-12-04T05:52:35.001Z,27.63
2022-12-04T05:55:07.366Z,27.33
2022-12-04T05:57:39.333Z,28.60
2022-12-04T06:00:12.562Z,27.70
2022-12-04T06:02:44.620Z,27.70
2022-12-04T06:05:16.834Z,28.27
2022-12-04T06:07:48.762Z,28.40
2022-12-04T06:10:20.722Z,28.27
2022-12-04T06:12:57.661Z,29.27
2022-12-04T06:15:29.603Z,28.13
2022-12-04T06:18:01.601Z,28.47
2022-12-04T06:20:33.848Z,27.73
2022-12-04T06:23:05.856Z,28.83
2022-12-04T06:25:37.758Z,27.73
2022-12-04T06:28:09.743Z,29.00
2022-12-04T06:30:41.652Z,28.80
2022-12-04T06:33:13.648Z,29.07
2022-12-04T06:35:45.567Z,28.43
2022-12-04T06:38:17.552Z,27.97
2022-12-04T06:40:49.425Z,28.03
2022-12-04T06:43:21.773Z,29.70
2022-12-04T06:46:07.976Z,28.93
2022-12-04T06:48:41.078Z,27.80
2022-12-04T06:51:40.841Z,27.53
2022-12-04T06:54:13.176Z,27.50
2022-12-04T06:56:45.167Z,28.07
2022-12-04T06:59:17.424Z,28.73
2022-12-04T07:01:49.479Z,28.27
2022-12-04T07:04:21.430Z,28.43
2022-12-04T07:06:53.421Z,28.63
2022-12-04T07:09:25.335Z,28.03
2022-12-04T07:11:57.312Z,28.23
2022-12-04T07:14:29.423Z,27.83
2022-12-04T07:17:01.482Z,28.40
2022-12-04T07:19:33.443Z,27.30
2022-12-04T07:22:06.465Z,27.53
2022-12-04T07:24:38.983Z,27.10
2022-12-04T07:27:10.903Z,26.47
2022-12-04T07:29:43.583Z,27.23
2022-12-04T07:32:15.542Z,27.00
2022-12-04T07:34:47.537Z,27.63
2022-12-04T07:37:19.493Z,26.07
2022-12-04T07:39:53.118Z,26.73
2022-12-04T07:42:25.246Z,25.53
2022-12-04T07:44:57.162Z,25.93
2022-12-04T07:47:29.100Z,25.50
2022-12-04T07:50:01.089Z,26.57
2022-12-04T07:52:38.059Z,25.50
2022-12-04T07:55:10.160Z,26.33
2022-12-04T07:57:42.589Z,25.83
2022-12-04T08:00:15.912Z,25.70
2022-12-04T08:02:47.843Z,24.67
2022-12-04T08:05:20.167Z,24.83
2022-12-04T08:07:52.868Z,23.83
2022-12-04T08:10:24.813Z,25.37
2022-12-04T08:12:56.736Z,24.53
2022-12-04T08:15:28.705Z,26.40
2022-12-04T08:18:00.704Z,26.53
2022-12-04T08:20:32.606Z,27.67
2022-12-04T08:23:04.563Z,24.47
2022-12-04T08:25:40.414Z,25.07
2022-12-04T08:28:12.485Z,24.10
2022-12-04T08:30:44.496Z,22.13
2022-12-04T08:33:16.475Z,23.17
2022-12-04T08:35:48.414Z,22.43
2022-12-04T08:38:20.332Z,22.63
2022-12-04T08:40:52.316Z,23.10
2022-12-04T08:43:24.300Z,22.70
2022-12-04T08:46:03.250Z,20.63
2022-12-04T08:48:35.686Z,21.57
2022-12-04T08:51:15.519Z,21.83
2022-12-04T08:53:48.130Z,20.13
2022-12-04T08:56:20.194Z,21.80
2022-12-04T08:58:52.617Z,21.63
2022-12-04T09:01:25.931Z,21.27
2022-12-04T09:03:58.939Z,20.43
2022-12-04T09:06:31.118Z,21.27
2022-12-04T09:09:03.584Z,20.17
2022-12-04T09:11:35.613Z,20.60
2022-12-04T09:14:07.722Z,20.33
2022-12-04T09:16:39.695Z,20.00
2022-12-04T09:19:11.589Z,20.47
2022-12-04T09:21:43.590Z,19.30
2022-12-04T09:24:15.667Z,19.70
2022-12-04T09:26:47.595Z,19.43
2022-12-04T09:29:19.485Z,19.80
2022-12-04T09:31:51.404Z,18.77
2022-12-04T09:34:23.321Z,19.83
2022-12-04T09:36:55.282Z,19.37
2022-12-04T09:39:27.543Z,18.47
2022-12-04T09:42:20.727Z,18.97
2022-12-04T09:45:19.339Z,17.70
2022-12-04T09:47:59.270Z,17.40
2022-12-04T09:50:46.928Z,18.43
2022-12-04T09:53:24.793Z,17.87
2022-12-04T09:56:13.886Z,17.20
2022-12-04T09:59:00.298Z,17.57
2022-12-04T10:02:11.450Z,17.10
2022-12-04T10:04:43.663Z,17.47
2022-12-04T10:08:02.697Z,17.80
2022-12-04T10:11:04.624Z,17.77
2022-12-04T10:14:03.386Z,16.47
2022-12-04T10:16:56.759Z,16.37
2022-12-04T10:20:22.839Z,17.30
2022-12-04T10:23:44.093Z,17.67
2022-12-04T10:26:18.874Z,16.57
2022-12-04T10:29:20.037Z,16.97
2022-12-04T10:31:56.956Z,18.20
2022-12-04T10:34:31.862Z,17.87
2022-12-04T10:37:13.646Z,18.00
2022-12-04T10:40:28.290Z,17.67
2022-12-04T10:43:24.208Z,17.23
2022-12-04T10:45:56.538Z,17.20
2022-12-04T10:48:39.847Z,17.70
2022-12-04T10:51:18.138Z,18.30
2022-12-04T10:53:51.879Z,17.27
2022-12-04T10:56:26.308Z,18.13
2022-12-04T10:59:05.966Z,18.20
2022-12-04T11:01:38.186Z,17.60
2022-12-04T11:04:28.139Z,17.73
2022-12-04T11:07:18.730Z,17.57
2022-12-04T11:10:20.714Z,17.23
2022-12-04T11:12:59.582Z,15.50
2022-12-04T11:15:36.331Z,16.93
2022-12-04T11:18:29.584Z,16.80
2022-12-04T11:21:03.792Z,17.47
2022-12-04T11:23:56.148Z,17.17
2022-12-04T11:26:38.845Z,16.53
2022-12-04T11:29:17.136Z,17.67
2022-12-04T11:31:55.682Z,17.40
2022-12-04T11:34:38.950Z,17.37
2022-12-04T11:37:24.970Z,17.70
2022-12-04T11:39:57.895Z,17.73
2022-12-04T11:42:32.091Z,17.63
2022-12-04T11:45:23.164Z,17.73
2022-12-04T11:48:02.267Z,16.93
2022-12-04T11:51:02.901Z,17.00
2022-12-04T11:54:22.229Z,17.10
2022-12-04T11:57:05.132Z,17.03
2022-12-04T12:00:18.604Z,17.20
2022-12-04T12:03:30.875Z,17.13
2022-12-04T12:06:51.203Z,16.63
2022-12-04T12:09:38.946Z,17.27
2022-12-04T12:12:49.214Z,16.67
2022-12-04T12:15:31.422Z,17.00
2022-12-04T12:18:46.326Z,17.80
2022-12-04T12:21:26.989Z,24.48
2022-12-04T12:24:41.203Z,19.10
2022-12-04T12:28:25.595Z,17.80
2022-12-04T12:31:30.131Z,24.42
2022-12-04T12:34:34.316Z,18.73
2022-12-04T12:37:49.515Z,18.13
2022-12-04T12:40:48.852Z,17.67
2022-12-04T12:43:32.041Z,17.33
2022-12-04T12:46:24.177Z,15.63
2022-12-04T12:49:21.615Z,17.10
2022-12-04T12:52:17.490Z,17.20
2022-12-04T12:54:56.053Z,16.57
2022-12-04T12:57:39.600Z,17.63
2022-12-04T13:00:23.191Z,16.53
2022-12-04T13:03:30.220Z,16.20
2022-12-04T13:06:13.630Z,16.20
2022-12-04T13:09:05.674Z,16.27
2022-12-04T13:11:39.115Z,16.50
2022-12-04T13:14:14.150Z,16.80
2022-12-04T13:17:21.183Z,16.60
2022-12-04T13:19:58.153Z,15.77
2022-12-04T13:22:51.025Z,16.67
2022-12-04T13:25:57.220Z,15.63
2022-12-04T13:28:55.953Z,15.77
2022-12-04T13:31:55.325Z,15.73
2022-12-04T13:35:21.091Z,16.60
2022-12-04T13:38:27.118Z,16.67
2022-12-04T13:41:10.907Z,18.57
2022-12-04T13:43:42.765Z,17.07
2022-12-04T13:46:36.904Z,16.13
2022-12-04T13:49:17.824Z,16.20
2022-12-04T13:51:50.041Z,16.40
2022-12-04T13:54:37.492Z,16.40
2022-12-04T13:57:15.525Z,16.47
2022-12-04T13:59:49.060Z,17.30
2022-12-04T14:02:35.234Z,16.83
2022-12-04T14:05:11.372Z,16.40
2022-12-04T14:08:06.971Z,17.57
2022-12-04T14:10:39.744Z,17.80
2022-12-04T14:13:25.859Z,17.37
2022-12-04T14:16:16.479Z,17.13
2022-12-04T14:19:01.942Z,17.00
2022-12-04T14:21:47.454Z,17.03
2022-12-04T14:24:37.579Z,16.73
2022-12-04T14:27:36.375Z,16.77
2022-12-04T14:30:32.482Z,16.47
2022-12-04T14:33:21.832Z,16.20
2022-12-04T14:36:07.072Z,16.47
2022-12-04T14:38:39.805Z,16.43
2022-12-04T14:41:11.801Z,16.43
2022-12-04T14:43:45.544Z,17.20
2022-12-04T14:46:43.857Z,16.17
2022-12-04T14:49:37.098Z,17.07
2022-12-04T14:52:26.795Z,16.50
2022-12-04T14:55:20.407Z,16.70
2022-12-04T14:58:21.420Z,16.53
2022-12-04T15:00:55.551Z,16.20
2022-12-04T15:03:31.262Z,16.73
2022-12-04T15:06:17.859Z,16.03
2022-12-04T15:09:17.353Z,16.83
2022-12-04T15:12:17.259Z,15.50
2022-12-04T15:14:50.424Z,15.40
2022-12-04T15:17:22.378Z,16.57
2022-12-04T15:19:54.257Z,15.97
2022-12-04T15:22:28.729Z,21.40
2022-12-04T15:25:01.248Z,17.63
2022-12-04T15:27:35.333Z,16.60
2022-12-04T15:30:19.811Z,15.67
2022-12-04T15:32:53.668Z,16.63
2022-12-04T15:35:34.147Z,16.40
2022-12-04T15:38:06.123Z,16.47
2022-12-04T15:40:38.069Z,16.40
2022-12-04T15:43:22.289Z,16.37
2022-12-04T15:45:55.014Z,16.43
2022-12-04T15:48:31.384Z,14.67
2022-12-04T15:51:08.103Z,15.60
2022-12-04T15:53:44.785Z,15.80
2022-12-04T15:56:21.308Z,16.40
2022-12-04T15:59:01.642Z,15.30
2022-12-04T16:01:40.759Z,16.07
2022-12-04T16:04:28.236Z,14.93
2022-12-04T16:07:00.254Z,15.73
2022-12-04T16:09:32.479Z,15.50
2022-12-04T16:12:19.812Z,15.13
2022-12-04T16:14:56.490Z,14.50
2022-12-04T16:17:32.142Z,15.00
2022-12-04T16:20:06.200Z,15.53
2022-12-04T16:22:41.348Z,15.13
2022-12-04T16:25:13.728Z,15.63
2022-12-04T16:27:45.696Z,15.67
2022-12-04T16:30:17.822Z,15.80
2022-12-04T16:32:49.756Z,15.37
2022-12-04T16:35:21.914Z,15.27
2022-12-04T16:37:53.872Z,15.20
2022-12-04T16:40:25.897Z,15.20
2022-12-04T16:42:57.824Z,14.40
2022-12-04T16:45:33.832Z,15.80
2022-12-04T16:48:05.917Z,14.10
2022-12-04T16:50:37.840Z,16.07
2022-12-04T16:53:20.007Z,15.00
2022-12-04T16:55:53.246Z,14.97
2022-12-04T16:58:25.234Z,14.67
2022-12-04T17:00:57.415Z,14.53
2022-12-04T17:03:34.345Z,15.27
2022-12-04T17:06:06.413Z,15.10
2022-12-04T17:08:38.347Z,15.30
2022-12-04T17:11:16.424Z,15.13
2022-12-04T17:13:48.366Z,15.10
2022-12-04T17:16:20.410Z,15.30
2022-12-04T17:18:52.703Z,15.20
2022-12-04T17:21:24.796Z,17.00
2022-12-04T17:23:56.922Z,17.10
2022-12-04T17:26:28.891Z,16.83
2022-12-04T17:29:00.909Z,16.67
2022-12-04T17:31:33.108Z,16.93
2022-12-04T17:34:05.038Z,17.07
2022-12-04T17:36:37.031Z,16.23
2022-12-04T17:39:11.596Z,18.33
2022-12-04T17:41:43.551Z,17.83
2022-12-04T17:44:15.538Z,17.80
2022-12-04T17:46:47.764Z,18.37
2022-12-04T17:49:19.828Z,18.97
2022-12-04T17:51:51.772Z,18.00
2022-12-04T17:54:23.974Z,18.53
2022-12-04T17:56:58.018Z,17.77
2022-12-04T17:59:30.168Z,18.90
2022-12-04T18:02:02.194Z,18.43
2022-12-04T18:04:34.158Z,17.77
2022-12-04T18:07:06.450Z,19.23
2022-12-04T18:09:39.725Z,18.60
2022-12-04T18:12:12.311Z,18.77
2022-12-04T18:14:44.212Z,18.87
2022-12-04T18:17:17.657Z,18.60
2022-12-04T18:19:49.608Z,18.53
2022-12-04T18:22:21.653Z,19.33
2022-12-04T18:24:54.587Z,19.97
2022-12-04T18:27:26.492Z,17.87
2022-12-04T18:30:00.750Z,19.27
2022-12-04T18:32:32.695Z,19.03
2022-12-04T18:35:05.112Z,20.20
2022-12-04T18:37:37.421Z,20.10
2022-12-04T18:40:09.929Z,20.80
2022-12-04T18:42:41.973Z,20.07
2022-12-04T18:45:13.996Z,20.20
2022-12-04T18:47:47.430Z,20.17
2022-12-04T18:50:19.343Z,21.23
2022-12-04T18:52:56.982Z,20.57
2022-12-04T18:55:36.546Z,20.00
2022-12-04T18:58:08.429Z,20.87
2022-12-04T19:00:40.411Z,21.70
2022-12-04T19:03:12.497Z,19.80
2022-12-04T19:05:51.587Z,20.40
2022-12-04T19:08:26.259Z,20.07
2022-12-04T19:11:13.408Z,20.07
2022-12-04T19:13:45.398Z,19.67
2022-12-04T19:16:18.984Z,19.60
2022-12-04T19:18:52.389Z,18.57
2022-12-04T19:21:25.585Z,19.37
2022-12-04T19:24:00.861Z,18.63
2022-12-04T19:26:34.522Z,18.50
2022-12-04T19:29:07.927Z,18.13
2022-12-04T19:31:40.081Z,17.87
2022-12-04T19:34:12.062Z,18.27
2022-12-04T19:36:45.373Z,18.63
2022-12-04T19:39:17.298Z,18.83
2022-12-04T19:41:49.800Z,18.57
2022-12-04T19:47:14.570Z,18.37
2022-12-04T19:49:46.734Z,19.53
2022-12-04T19:52:18.794Z,19.07
2022-12-04T19:54:50.764Z,19.27
2022-12-04T19:57:22.736Z,18.80
2022-12-04T19:59:54.652Z,17.77
2022-12-04T20:02:26.713Z,19.07
2022-12-04T20:04:58.742Z,18.50
2022-12-04T20:07:30.724Z,17.90
2022-12-04T20:10:02.721Z,19.10
2022-12-04T20:12:34.658Z,23.43
2022-12-04T20:15:06.981Z,20.87
2022-12-04T20:17:38.997Z,21.77
2022-12-04T20:20:11.169Z,18.73
2022-12-04T20:22:43.114Z,19.90
2022-12-04T20:25:15.106Z,18.40
2022-12-04T20:27:47.145Z,20.17
2022-12-04T20:30:19.206Z,18.07
2022-12-04T20:32:51.133Z,19.07
2022-12-04T20:35:23.048Z,18.17
2022-12-04T20:37:55.026Z,20.47
2022-12-04T20:40:26.983Z,19.10
2022-12-04T20:42:58.912Z,18.93
2022-12-04T20:45:31.309Z,17.77
2022-12-04T20:48:03.590Z,18.13
2022-12-04T20:50:35.561Z,19.03
2022-12-04T20:53:07.522Z,19.23
2022-12-04T20:55:39.460Z,17.37
2022-12-04T20:58:11.432Z,19.30
2022-12-04T21:00:43.316Z,19.93
2022-12-04T21:03:16.017Z,17.63
2022-12-04T21:05:50.004Z,18.73
2022-12-04T21:08:41.966Z,19.23
2022-12-04T21:11:14.151Z,17.93
2022-12-04T21:14:04.517Z,16.83
2022-12-04T21:16:36.931Z,18.30
2022-12-04T21:19:12.368Z,18.60
2022-12-04T21:21:45.239Z,19.47
2022-12-04T21:24:20.124Z,19.50
2022-12-04T21:26:53.355Z,19.03
2022-12-04T21:29:25.370Z,19.17
2022-12-04T21:31:57.358Z,20.17
2022-12-04T21:34:29.288Z,19.53
2022-12-04T21:37:01.504Z,19.13
2022-12-04T21:39:33.532Z,20.00
2022-12-04T21:42:24.293Z,19.80
2022-12-04T21:44:57.757Z,18.80
2022-12-04T21:47:30.590Z,19.27
2022-12-04T21:50:03.140Z,18.87
2022-12-04T21:52:35.076Z,19.60
2022-12-04T21:55:07.444Z,18.53
2022-12-04T21:57:39.453Z,19.73
2022-12-04T22:00:12.397Z,19.20
2022-12-04T22:02:44.387Z,19.97
2022-12-04T22:05:16.552Z,19.47
2022-12-04T22:07:48.495Z,20.13
2022-12-04T22:10:20.455Z,19.23
2022-12-04T22:12:52.433Z,19.73
2022-12-04T22:15:24.395Z,19.40
2022-12-04T22:17:56.437Z,18.93
2022-12-04T22:20:28.428Z,20.53
2022-12-04T22:23:00.912Z,20.97
2022-12-04T22:25:33.518Z,20.77
2022-12-04T22:28:05.626Z,20.90
2022-12-04T22:30:37.595Z,20.73
2022-12-04T22:33:09.903Z,19.57
2022-12-04T22:35:41.945Z,20.20
2022-12-04T22:38:13.892Z,21.77
2022-12-04T22:40:45.880Z,20.83
2022-12-04T22:43:17.815Z,19.97
2022-12-04T22:45:49.723Z,21.67
2022-12-04T22:48:22.025Z,22.17
2022-12-04T22:51:15.901Z,21.37
2022-12-04T22:53:52.477Z,21.33
2022-12-04T22:56:28.133Z,21.07
2022-12-04T22:59:01.119Z,21.07
2022-12-04T23:01:34.532Z,22.03
2022-12-04T23:04:06.513Z,23.17
2022-12-04T23:06:38.942Z,22.93
2022-12-04T23:09:17.453Z,22.50
2022-12-04T23:11:55.100Z,22.53
2022-12-04T23:14:28.963Z,23.87
2022-12-04T23:17:01.157Z,22.77
2022-12-04T23:19:33.312Z,23.13
2022-12-04T23:22:05.200Z,23.53
2022-12-04T23:24:38.576Z,23.07
2022-12-04T23:27:10.464Z,23.17
2022-12-04T23:29:53.187Z,23.63
2022-12-04T23:32:25.742Z,23.50
2022-12-04T23:34:57.655Z,23.77
2022-12-04T23:37:29.580Z,22.47
2022-12-04T23:40:01.656Z,23.57
2022-12-04T23:42:34.116Z,23.50
2022-12-04T23:45:07.902Z,24.17
2022-12-04T23:47:39.827Z,22.60
2022-12-04T23:50:11.851Z,24.00
2022-12-04T23:52:43.718Z,23.53
2022-12-04T23:55:15.959Z,23.03
2022-12-04T23:57:47.915Z,23.03
